sensor_id;sensor_type;location;lat;lon;timestamp;P1;durP1;ratioP1;P2;durP2;ratioP2
16093;SDS011;8151;47.824;12.092;2023-12-29T00:00:26;3.57;;;2.70;;
16093;SDS011;8151;47.824;12.092;2023-12-29T00:02:55;4.10;;;3.03;;
16093;SDS011;8151;47.824;12.092;2023-12-29T00:05:23;5.10;;;3.20;;
16093;SDS011;8151;47.824;12.092;2023-12-29T00:07:52;4.97;;;2.60;;
16093;SDS011;8151;47.824;12.092;2023-12-29T00:10:20;4.80;;;2.30;;
16093;SDS011;8151;47.824;12.092;2023-12-29T00:12:50;3.53;;;2.50;;
16093;SDS011;8151;47.824;12.092;2023-12-29T00:15:18;3.43;;;2.60;;
16093;SDS011;8151;47.824;12.092;2023-12-29T00:17:47;5.40;;;2.50;;
16093;SDS011;8151;47.824;12.092;2023-12-29T00:20:15;4.97;;;2.60;;
16093;SDS011;8151;47.824;12.092;2023-12-29T00:23:03;3.60;;;2.50;;
16093;SDS011;8151;47.824;12.092;2023-12-29T00:25:31;3.73;;;2.67;;
16093;SDS011;8151;47.824;12.092;2023-12-29T00:28:01;3.67;;;2.67;;
16093;SDS011;8151;47.824;12.092;2023-12-29T00:30:30;5.10;;;3.13;;
16093;SDS011;8151;47.824;12.092;2023-12-29T00:33:18;3.43;;;2.30;;
16093;SDS011;8151;47.824;12.092;2023-12-29T00:35:47;3.70;;;2.60;;
16093;SDS011;8151;47.824;12.092;2023-12-29T00:38:17;5.23;;;2.67;;
16093;SDS011;8151;47.824;12.092;2023-12-29T00:40:45;6.93;;;2.77;;
16093;SDS011;8151;47.824;12.092;2023-12-29T00:43:15;5.50;;;2.70;;
16093;SDS011;8151;47.824;12.092;2023-12-29T00:45:45;4.80;;;2.80;;
16093;SDS011;8151;47.824;12.092;2023-12-29T00:48:13;3.63;;;2.50;;
16093;SDS011;8151;47.824;12.092;2023-12-29T00:50:42;4.33;;;2.40;;
16093;SDS011;8151;47.824;12.092;2023-12-29T00:53:10;4.40;;;2.70;;
16093;SDS011;8151;47.824;12.092;2023-12-29T00:55:39;4.43;;;2.53;;
16093;SDS011;8151;47.824;12.092;2023-12-29T00:58:07;4.87;;;3.10;;
16093;SDS011;8151;47.824;12.092;2023-12-29T01:00:37;5.27;;;2.70;;
16093;SDS011;8151;47.824;12.092;2023-12-29T01:03:06;3.20;;;2.77;;
16093;SDS011;8151;47.824;12.092;2023-12-29T01:05:35;3.47;;;2.53;;
16093;SDS011;8151;47.824;12.092;2023-12-29T01:08:03;4.50;;;2.40;;
16093;SDS011;8151;47.824;12.092;2023-12-29T01:10:35;7.47;;;2.57;;
16093;SDS011;8151;47.824;12.092;2023-12-29T01:13:03;5.40;;;2.70;;
16093;SDS011;8151;47.824;12.092;2023-12-29T01:15:32;5.83;;;2.90;;
16093;SDS011;8151;47.824;12.092;2023-12-29T01:18:05;5.70;;;3.33;;
16093;SDS011;8151;47.824;12.092;2023-12-29T01:20:33;4.67;;;2.90;;
16093;SDS011;8151;47.824;12.092;2023-12-29T01:23:02;5.17;;;3.00;;
16093;SDS011;8151;47.824;12.092;2023-12-29T01:25:30;3.50;;;2.90;;
16093;SDS011;8151;47.824;12.092;2023-12-29T01:27:59;3.97;;;2.90;;
16093;SDS011;8151;47.824;12.092;2023-12-29T01:30:27;3.77;;;2.80;;
16093;SDS011;8151;47.824;12.092;2023-12-29T01:32:56;5.17;;;2.90;;
16093;SDS011;8151;47.824;12.092;2023-12-29T01:35:25;4.87;;;3.07;;
16093;SDS011;8151;47.824;12.092;2023-12-29T01:37:54;4.47;;;3.03;;
16093;SDS011;8151;47.824;12.092;2023-12-29T01:40:24;4.13;;;3.10;;
16093;SDS011;8151;47.824;12.092;2023-12-29T01:42:52;6.00;;;2.97;;
16093;SDS011;8151;47.824;12.092;2023-12-29T01:45:21;3.83;;;2.73;;
16093;SDS011;8151;47.824;12.092;2023-12-29T01:47:51;4.23;;;2.83;;
16093;SDS011;8151;47.824;12.092;2023-12-29T01:50:21;4.97;;;2.57;;
16093;SDS011;8151;47.824;12.092;2023-12-29T01:52:51;5.20;;;2.63;;
16093;SDS011;8151;47.824;12.092;2023-12-29T01:55:20;4.77;;;2.53;;
16093;SDS011;8151;47.824;12.092;2023-12-29T01:57:49;3.27;;;2.30;;
16093;SDS011;8151;47.824;12.092;2023-12-29T02:00:20;5.90;;;2.60;;
16093;SDS011;8151;47.824;12.092;2023-12-29T02:02:49;4.40;;;2.60;;
16093;SDS011;8151;47.824;12.092;2023-12-29T02:05:20;6.60;;;3.03;;
16093;SDS011;8151;47.824;12.092;2023-12-29T02:07:52;4.23;;;3.10;;
16093;SDS011;8151;47.824;12.092;2023-12-29T02:10:21;4.17;;;3.10;;
16093;SDS011;8151;47.824;12.092;2023-12-29T02:12:50;3.73;;;2.90;;
16093;SDS011;8151;47.824;12.092;2023-12-29T02:15:21;4.13;;;2.73;;
16093;SDS011;8151;47.824;12.092;2023-12-29T02:17:50;3.23;;;2.57;;
16093;SDS011;8151;47.824;12.092;2023-12-29T02:20:27;3.27;;;2.40;;
16093;SDS011;8151;47.824;12.092;2023-12-29T02:23:01;3.77;;;2.40;;
16093;SDS011;8151;47.824;12.092;2023-12-29T02:25:31;3.70;;;2.33;;
16093;SDS011;8151;47.824;12.092;2023-12-29T02:28:01;3.50;;;2.77;;
16093;SDS011;8151;47.824;12.092;2023-12-29T02:30:37;3.23;;;2.60;;
16093;SDS011;8151;47.824;12.092;2023-12-29T02:33:09;5.13;;;2.70;;
16093;SDS011;8151;47.824;12.092;2023-12-29T02:35:39;4.43;;;2.53;;
16093;SDS011;8151;47.824;12.092;2023-12-29T02:38:12;4.60;;;2.80;;
16093;SDS011;8151;47.824;12.092;2023-12-29T02:40:42;2.93;;;2.63;;
16093;SDS011;8151;47.824;12.092;2023-12-29T02:43:11;3.07;;;2.40;;
16093;SDS011;8151;47.824;12.092;2023-12-29T02:45:39;5.13;;;2.23;;
16093;SDS011;8151;47.824;12.092;2023-12-29T02:48:09;3.70;;;2.30;;
16093;SDS011;8151;47.824;12.092;2023-12-29T02:50:38;2.97;;;2.37;;
16093;SDS011;8151;47.824;12.092;2023-12-29T02:53:06;4.83;;;2.70;;
16093;SDS011;8151;47.824;12.092;2023-12-29T02:55:36;3.77;;;2.33;;
16093;SDS011;8151;47.824;12.092;2023-12-29T02:58:06;3.23;;;2.30;;
16093;SDS011;8151;47.824;12.092;2023-12-29T03:00:34;2.60;;;2.27;;
16093;SDS011;8151;47.824;12.092;2023-12-29T03:03:03;3.17;;;2.30;;
16093;SDS011;8151;47.824;12.092;2023-12-29T03:05:32;3.60;;;2.10;;
16093;SDS011;8151;47.824;12.092;2023-12-29T03:08:00;3.23;;;2.40;;
16093;SDS011;8151;47.824;12.092;2023-12-29T03:10:29;4.13;;;2.30;;
16093;SDS011;8151;47.824;12.092;2023-12-29T03:12:58;2.90;;;2.00;;
16093;SDS011;8151;47.824;12.092;2023-12-29T03:15:28;3.50;;;2.40;;
16093;SDS011;8151;47.824;12.092;2023-12-29T03:17:56;2.70;;;1.90;;
16093;SDS011;8151;47.824;12.092;2023-12-29T03:20:25;2.67;;;2.00;;
16093;SDS011;8151;47.824;12.092;2023-12-29T03:22:53;3.63;;;2.37;;
16093;SDS011;8151;47.824;12.092;2023-12-29T03:25:22;4.20;;;2.13;;
16093;SDS011;8151;47.824;12.092;2023-12-29T03:27:50;4.03;;;2.60;;
16093;SDS011;8151;47.824;12.092;2023-12-29T03:30:19;3.17;;;2.20;;
16093;SDS011;8151;47.824;12.092;2023-12-29T03:32:49;4.23;;;2.40;;
16093;SDS011;8151;47.824;12.092;2023-12-29T03:35:18;2.80;;;2.10;;
16093;SDS011;8151;47.824;12.092;2023-12-29T03:37:46;3.90;;;2.07;;
16093;SDS011;8151;47.824;12.092;2023-12-29T03:40:15;4.27;;;2.10;;
16093;SDS011;8151;47.824;12.092;2023-12-29T03:42:45;4.87;;;2.50;;
16093;SDS011;8151;47.824;12.092;2023-12-29T03:45:13;5.93;;;2.20;;
16093;SDS011;8151;47.824;12.092;2023-12-29T03:47:45;3.53;;;2.30;;
16093;SDS011;8151;47.824;12.092;2023-12-29T03:50:15;5.13;;;2.20;;
16093;SDS011;8151;47.824;12.092;2023-12-29T03:52:43;3.57;;;2.30;;
16093;SDS011;8151;47.824;12.092;2023-12-29T03:55:14;4.83;;;2.40;;
16093;SDS011;8151;47.824;12.092;2023-12-29T03:57:43;2.00;;;1.80;;
16093;SDS011;8151;47.824;12.092;2023-12-29T04:00:12;2.80;;;2.07;;
16093;SDS011;8151;47.824;12.092;2023-12-29T04:02:41;2.30;;;2.10;;
16093;SDS011;8151;47.824;12.092;2023-12-29T04:05:10;4.67;;;2.43;;
16093;SDS011;8151;47.824;12.092;2023-12-29T04:07:42;3.10;;;2.30;;
16093;SDS011;8151;47.824;12.092;2023-12-29T04:10:10;4.90;;;2.33;;
16093;SDS011;8151;47.824;12.092;2023-12-29T04:12:39;3.23;;;2.40;;
16093;SDS011;8151;47.824;12.092;2023-12-29T04:15:08;2.67;;;2.20;;
16093;SDS011;8151;47.824;12.092;2023-12-29T04:17:37;2.83;;;1.80;;
16093;SDS011;8151;47.824;12.092;2023-12-29T04:20:06;3.37;;;1.93;;
16093;SDS011;8151;47.824;12.092;2023-12-29T04:22:35;2.93;;;2.10;;
16093;SDS011;8151;47.824;12.092;2023-12-29T04:25:05;4.53;;;2.17;;
16093;SDS011;8151;47.824;12.092;2023-12-29T04:27:34;3.20;;;2.23;;
16093;SDS011;8151;47.824;12.092;2023-12-29T04:30:02;3.33;;;2.10;;
16093;SDS011;8151;47.824;12.092;2023-12-29T04:32:32;2.23;;;2.00;;
16093;SDS011;8151;47.824;12.092;2023-12-29T04:35:00;2.77;;;1.70;;
16093;SDS011;8151;47.824;12.092;2023-12-29T04:37:29;3.53;;;2.27;;
16093;SDS011;8151;47.824;12.092;2023-12-29T04:39:57;3.47;;;2.30;;
16093;SDS011;8151;47.824;12.092;2023-12-29T04:42:27;3.33;;;2.07;;
16093;SDS011;8151;47.824;12.092;2023-12-29T04:44:55;2.90;;;1.83;;
16093;SDS011;8151;47.824;12.092;2023-12-29T04:47:27;3.77;;;2.00;;
16093;SDS011;8151;47.824;12.092;2023-12-29T04:49:58;3.80;;;2.13;;
16093;SDS011;8151;47.824;12.092;2023-12-29T04:52:27;2.53;;;2.20;;
16093;SDS011;8151;47.824;12.092;2023-12-29T04:54:55;3.13;;;2.10;;
16093;SDS011;8151;47.824;12.092;2023-12-29T04:57:24;2.43;;;2.03;;
16093;SDS011;8151;47.824;12.092;2023-12-29T04:59:53;2.93;;;1.90;;
16093;SDS011;8151;47.824;12.092;2023-12-29T05:02:22;6.13;;;1.93;;
16093;SDS011;8151;47.824;12.092;2023-12-29T05:04:50;4.23;;;2.47;;
16093;SDS011;8151;47.824;12.092;2023-12-29T05:07:19;2.40;;;1.80;;
16093;SDS011;8151;47.824;12.092;2023-12-29T05:09:47;2.30;;;2.10;;
16093;SDS011;8151;47.824;12.092;2023-12-29T05:12:16;3.23;;;2.23;;
16093;SDS011;8151;47.824;12.092;2023-12-29T05:14:44;5.23;;;2.27;;
16093;SDS011;8151;47.824;12.092;2023-12-29T05:17:14;2.53;;;2.30;;
16093;SDS011;8151;47.824;12.092;2023-12-29T05:19:42;4.77;;;2.57;;
16093;SDS011;8151;47.824;12.092;2023-12-29T05:22:11;4.67;;;2.43;;
16093;SDS011;8151;47.824;12.092;2023-12-29T05:24:42;3.17;;;2.30;;
16093;SDS011;8151;47.824;12.092;2023-12-29T05:27:12;5.27;;;2.30;;
16093;SDS011;8151;47.824;12.092;2023-12-29T05:29:41;2.90;;;2.33;;
16093;SDS011;8151;47.824;12.092;2023-12-29T05:32:09;5.77;;;2.00;;
16093;SDS011;8151;47.824;12.092;2023-12-29T05:34:39;5.73;;;2.37;;
16093;SDS011;8151;47.824;12.092;2023-12-29T05:37:08;3.03;;;2.10;;
16093;SDS011;8151;47.824;12.092;2023-12-29T05:39:37;5.00;;;2.27;;
16093;SDS011;8151;47.824;12.092;2023-12-29T05:42:09;4.47;;;2.37;;
16093;SDS011;8151;47.824;12.092;2023-12-29T05:44:37;2.70;;;2.40;;
16093;SDS011;8151;47.824;12.092;2023-12-29T05:47:09;5.50;;;2.50;;
16093;SDS011;8151;47.824;12.092;2023-12-29T05:49:39;4.57;;;2.43;;
16093;SDS011;8151;47.824;12.092;2023-12-29T05:52:07;2.53;;;2.00;;
16093;SDS011;8151;47.824;12.092;2023-12-29T05:54:36;2.90;;;1.93;;
16093;SDS011;8151;47.824;12.092;2023-12-29T05:57:05;3.87;;;2.00;;
16093;SDS011;8151;47.824;12.092;2023-12-29T05:59:33;3.13;;;2.13;;
16093;SDS011;8151;47.824;12.092;2023-12-29T06:02:02;3.27;;;2.27;;
16093;SDS011;8151;47.824;12.092;2023-12-29T06:04:30;4.00;;;1.90;;
16093;SDS011;8151;47.824;12.092;2023-12-29T06:07:00;2.60;;;1.77;;
16093;SDS011;8151;47.824;12.092;2023-12-29T06:09:29;3.93;;;2.00;;
16093;SDS011;8151;47.824;12.092;2023-12-29T06:11:57;2.50;;;1.90;;
16093;SDS011;8151;47.824;12.092;2023-12-29T06:14:26;4.50;;;2.17;;
16093;SDS011;8151;47.824;12.092;2023-12-29T06:16:54;2.43;;;1.90;;
16093;SDS011;8151;47.824;12.092;2023-12-29T06:19:23;4.77;;;2.63;;
16093;SDS011;8151;47.824;12.092;2023-12-29T06:21:52;3.37;;;2.43;;
16093;SDS011;8151;47.824;12.092;2023-12-29T06:24:21;3.30;;;1.97;;
16093;SDS011;8151;47.824;12.092;2023-12-29T06:26:50;2.97;;;2.07;;
16093;SDS011;8151;47.824;12.092;2023-12-29T06:29:19;2.13;;;1.80;;
16093;SDS011;8151;47.824;12.092;2023-12-29T06:31:47;2.77;;;1.87;;
16093;SDS011;8151;47.824;12.092;2023-12-29T06:34:16;2.80;;;1.90;;
16093;SDS011;8151;47.824;12.092;2023-12-29T06:36:44;1.47;;;1.37;;
16093;SDS011;8151;47.824;12.092;2023-12-29T06:39:13;4.00;;;2.00;;
16093;SDS011;8151;47.824;12.092;2023-12-29T06:41:43;2.77;;;1.80;;
16093;SDS011;8151;47.824;12.092;2023-12-29T06:44:11;4.50;;;1.80;;
16093;SDS011;8151;47.824;12.092;2023-12-29T06:46:42;2.80;;;1.90;;
16093;SDS011;8151;47.824;12.092;2023-12-29T06:49:10;2.43;;;2.20;;
16093;SDS011;8151;47.824;12.092;2023-12-29T06:51:39;2.03;;;1.83;;
16093;SDS011;8151;47.824;12.092;2023-12-29T06:54:08;3.10;;;2.10;;
16093;SDS011;8151;47.824;12.092;2023-12-29T06:56:37;3.03;;;2.17;;
16093;SDS011;8151;47.824;12.092;2023-12-29T06:59:07;2.60;;;2.30;;
16093;SDS011;8151;47.824;12.092;2023-12-29T07:01:38;2.87;;;2.10;;
16093;SDS011;8151;47.824;12.092;2023-12-29T07:04:08;2.73;;;2.10;;
16093;SDS011;8151;47.824;12.092;2023-12-29T07:06:37;4.07;;;2.90;;
16093;SDS011;8151;47.824;12.092;2023-12-29T07:09:06;2.50;;;2.27;;
16093;SDS011;8151;47.824;12.092;2023-12-29T07:11:34;4.00;;;2.50;;
16093;SDS011;8151;47.824;12.092;2023-12-29T07:14:03;2.57;;;2.07;;
16093;SDS011;8151;47.824;12.092;2023-12-29T07:16:33;3.13;;;1.83;;
16093;SDS011;8151;47.824;12.092;2023-12-29T07:19:01;2.90;;;1.97;;
16093;SDS011;8151;47.824;12.092;2023-12-29T07:21:30;4.03;;;2.00;;
16093;SDS011;8151;47.824;12.092;2023-12-29T07:23:59;2.33;;;2.07;;
16093;SDS011;8151;47.824;12.092;2023-12-29T07:26:27;2.57;;;1.90;;
16093;SDS011;8151;47.824;12.092;2023-12-29T07:28:56;3.33;;;2.10;;
16093;SDS011;8151;47.824;12.092;2023-12-29T07:31:24;2.73;;;2.13;;
16093;SDS011;8151;47.824;12.092;2023-12-29T07:33:58;2.30;;;2.10;;
16093;SDS011;8151;47.824;12.092;2023-12-29T07:36:27;2.80;;;2.17;;
16093;SDS011;8151;47.824;12.092;2023-12-29T07:38:56;3.17;;;2.40;;
16093;SDS011;8151;47.824;12.092;2023-12-29T07:41:24;2.30;;;2.10;;
16093;SDS011;8151;47.824;12.092;2023-12-29T07:43:53;5.27;;;2.50;;
16093;SDS011;8151;47.824;12.092;2023-12-29T07:46:25;3.30;;;2.13;;
16093;SDS011;8151;47.824;12.092;2023-12-29T07:48:53;3.80;;;2.40;;
16093;SDS011;8151;47.824;12.092;2023-12-29T07:51:23;3.40;;;2.33;;
16093;SDS011;8151;47.824;12.092;2023-12-29T07:53:54;4.63;;;2.10;;
16093;SDS011;8151;47.824;12.092;2023-12-29T07:56:23;2.47;;;1.90;;
16093;SDS011;8151;47.824;12.092;2023-12-29T07:58:51;3.67;;;2.10;;
16093;SDS011;8151;47.824;12.092;2023-12-29T08:01:20;3.67;;;2.20;;
16093;SDS011;8151;47.824;12.092;2023-12-29T08:03:48;3.30;;;2.20;;
16093;SDS011;8151;47.824;12.092;2023-12-29T08:06:17;2.53;;;2.00;;
16093;SDS011;8151;47.824;12.092;2023-12-29T08:08:47;3.13;;;1.93;;
16093;SDS011;8151;47.824;12.092;2023-12-29T08:11:15;2.17;;;1.97;;
16093;SDS011;8151;47.824;12.092;2023-12-29T08:13:46;2.10;;;1.90;;
16093;SDS011;8151;47.824;12.092;2023-12-29T08:16:15;2.53;;;1.93;;
16093;SDS011;8151;47.824;12.092;2023-12-29T08:18:49;3.13;;;2.10;;
16093;SDS011;8151;47.824;12.092;2023-12-29T08:21:18;2.30;;;2.10;;
16093;SDS011;8151;47.824;12.092;2023-12-29T08:23:48;2.60;;;2.00;;
16093;SDS011;8151;47.824;12.092;2023-12-29T08:26:16;2.63;;;1.70;;
16093;SDS011;8151;47.824;12.092;2023-12-29T08:28:45;1.77;;;1.67;;
16093;SDS011;8151;47.824;12.092;2023-12-29T08:31:14;3.97;;;2.10;;
16093;SDS011;8151;47.824;12.092;2023-12-29T08:33:46;3.83;;;2.13;;
16093;SDS011;8151;47.824;12.092;2023-12-29T08:36:17;2.00;;;1.70;;
16093;SDS011;8151;47.824;12.092;2023-12-29T08:38:47;2.83;;;2.17;;
16093;SDS011;8151;47.824;12.092;2023-12-29T08:41:16;4.27;;;2.77;;
16093;SDS011;8151;47.824;12.092;2023-12-29T08:43:45;2.60;;;2.23;;
16093;SDS011;8151;47.824;12.092;2023-12-29T08:46:13;3.10;;;2.50;;
16093;SDS011;8151;47.824;12.092;2023-12-29T08:48:42;2.13;;;1.90;;
16093;SDS011;8151;47.824;12.092;2023-12-29T08:51:12;8.83;;;4.13;;
16093;SDS011;8151;47.824;12.092;2023-12-29T08:53:41;5.33;;;3.30;;
16093;SDS011;8151;47.824;12.092;2023-12-29T08:56:11;2.67;;;2.47;;
16093;SDS011;8151;47.824;12.092;2023-12-29T08:58:40;2.33;;;1.50;;
16093;SDS011;8151;47.824;12.092;2023-12-29T09:01:09;2.67;;;1.77;;
16093;SDS011;8151;47.824;12.092;2023-12-29T09:03:38;2.27;;;1.80;;
16093;SDS011;8151;47.824;12.092;2023-12-29T09:06:07;3.10;;;1.73;;
16093;SDS011;8151;47.824;12.092;2023-12-29T09:08:36;3.67;;;1.80;;
16093;SDS011;8151;47.824;12.092;2023-12-29T09:11:05;2.20;;;1.97;;
16093;SDS011;8151;47.824;12.092;2023-12-29T09:13:35;2.50;;;1.80;;
16093;SDS011;8151;47.824;12.092;2023-12-29T09:16:04;4.50;;;1.70;;
16093;SDS011;8151;47.824;12.092;2023-12-29T09:18:33;2.00;;;1.70;;
16093;SDS011;8151;47.824;12.092;2023-12-29T09:21:03;1.80;;;1.67;;
16093;SDS011;8151;47.824;12.092;2023-12-29T09:23:31;2.57;;;1.73;;
16093;SDS011;8151;47.824;12.092;2023-12-29T09:26:00;3.57;;;1.73;;
16093;SDS011;8151;47.824;12.092;2023-12-29T09:28:30;3.33;;;1.80;;
16093;SDS011;8151;47.824;12.092;2023-12-29T09:31:04;2.27;;;1.97;;
16093;SDS011;8151;47.824;12.092;2023-12-29T09:33:32;2.17;;;1.67;;
16093;SDS011;8151;47.824;12.092;2023-12-29T09:36:01;3.27;;;1.70;;
16093;SDS011;8151;47.824;12.092;2023-12-29T09:38:30;1.80;;;1.67;;
16093;SDS011;8151;47.824;12.092;2023-12-29T09:41:05;1.90;;;1.40;;
16093;SDS011;8151;47.824;12.092;2023-12-29T09:43:37;2.70;;;1.60;;
16093;SDS011;8151;47.824;12.092;2023-12-29T09:46:10;1.50;;;1.40;;
16093;SDS011;8151;47.824;12.092;2023-12-29T09:48:43;2.10;;;1.67;;
16093;SDS011;8151;47.824;12.092;2023-12-29T09:51:16;1.87;;;1.60;;
16093;SDS011;8151;47.824;12.092;2023-12-29T09:53:49;2.87;;;1.97;;
16093;SDS011;8151;47.824;12.092;2023-12-29T09:56:22;2.90;;;1.70;;
16093;SDS011;8151;47.824;12.092;2023-12-29T09:58:51;1.80;;;1.50;;
16093;SDS011;8151;47.824;12.092;2023-12-29T10:01:23;2.57;;;1.63;;
16093;SDS011;8151;47.824;12.092;2023-12-29T10:03:54;2.13;;;1.60;;
16093;SDS011;8151;47.824;12.092;2023-12-29T10:06:23;2.80;;;1.33;;
16093;SDS011;8151;47.824;12.092;2023-12-29T10:08:52;1.70;;;1.50;;
16093;SDS011;8151;47.824;12.092;2023-12-29T10:11:23;2.77;;;1.77;;
16093;SDS011;8151;47.824;12.092;2023-12-29T10:13:54;1.70;;;1.33;;
16093;SDS011;8151;47.824;12.092;2023-12-29T10:16:31;1.87;;;1.63;;
16093;SDS011;8151;47.824;12.092;2023-12-29T10:19:05;1.97;;;1.33;;
16093;SDS011;8151;47.824;12.092;2023-12-29T10:21:40;1.33;;;1.23;;
16093;SDS011;8151;47.824;12.092;2023-12-29T10:24:16;2.17;;;1.20;;
16093;SDS011;8151;47.824;12.092;2023-12-29T10:26:47;1.77;;;1.57;;
16093;SDS011;8151;47.824;12.092;2023-12-29T10:29:16;1.67;;;1.40;;
16093;SDS011;8151;47.824;12.092;2023-12-29T10:31:49;1.47;;;1.20;;
16093;SDS011;8151;47.824;12.092;2023-12-29T10:34:18;2.37;;;1.50;;
16093;SDS011;8151;47.824;12.092;2023-12-29T10:36:46;2.20;;;1.30;;
16093;SDS011;8151;47.824;12.092;2023-12-29T10:39:15;2.17;;;1.40;;
16093;SDS011;8151;47.824;12.092;2023-12-29T10:41:43;1.33;;;1.23;;
16093;SDS011;8151;47.824;12.092;2023-12-29T10:44:12;2.23;;;1.40;;
16093;SDS011;8151;47.824;12.092;2023-12-29T10:46:40;1.67;;;1.50;;
16093;SDS011;8151;47.824;12.092;2023-12-29T10:49:11;1.53;;;1.33;;
16093;SDS011;8151;47.824;12.092;2023-12-29T10:51:40;1.63;;;1.30;;
16093;SDS011;8151;47.824;12.092;2023-12-29T10:54:09;5.20;;;2.30;;
16093;SDS011;8151;47.824;12.092;2023-12-29T10:57:00;16.40;;;6.30;;
16093;SDS011;8151;47.824;12.092;2023-12-29T10:59:32;10.70;;;4.93;;
16093;SDS011;8151;47.824;12.092;2023-12-29T11:02:01;2.97;;;2.00;;
16093;SDS011;8151;47.824;12.092;2023-12-29T11:04:34;4.43;;;3.07;;
16093;SDS011;8151;47.824;12.092;2023-12-29T11:07:04;2.23;;;1.90;;
16093;SDS011;8151;47.824;12.092;2023-12-29T11:09:33;1.90;;;1.43;;
16093;SDS011;8151;47.824;12.092;2023-12-29T11:12:02;3.13;;;1.20;;
16093;SDS011;8151;47.824;12.092;2023-12-29T11:14:32;1.20;;;1.10;;
16093;SDS011;8151;47.824;12.092;2023-12-29T11:17:01;1.87;;;1.50;;
16093;SDS011;8151;47.824;12.092;2023-12-29T11:19:31;3.13;;;1.60;;
16093;SDS011;8151;47.824;12.092;2023-12-29T11:22:02;1.77;;;1.40;;
16093;SDS011;8151;47.824;12.092;2023-12-29T11:24:32;1.70;;;1.50;;
16093;SDS011;8151;47.824;12.092;2023-12-29T11:27:09;1.43;;;1.33;;
16093;SDS011;8151;47.824;12.092;2023-12-29T11:29:39;2.80;;;1.70;;
16093;SDS011;8151;47.824;12.092;2023-12-29T11:32:11;2.47;;;1.80;;
16093;SDS011;8151;47.824;12.092;2023-12-29T11:34:44;1.93;;;1.70;;
16093;SDS011;8151;47.824;12.092;2023-12-29T11:37:23;2.13;;;1.43;;
16093;SDS011;8151;47.824;12.092;2023-12-29T11:40:13;2.20;;;1.47;;
16093;SDS011;8151;47.824;12.092;2023-12-29T11:42:47;1.33;;;1.27;;
16093;SDS011;8151;47.824;12.092;2023-12-29T11:45:23;1.80;;;1.30;;
16093;SDS011;8151;47.824;12.092;2023-12-29T11:47:54;1.70;;;1.60;;
16093;SDS011;8151;47.824;12.092;2023-12-29T11:50:27;2.23;;;1.30;;
16093;SDS011;8151;47.824;12.092;2023-12-29T11:52:58;1.73;;;1.63;;
16093;SDS011;8151;47.824;12.092;2023-12-29T11:55:28;1.30;;;1.20;;
16093;SDS011;8151;47.824;12.092;2023-12-29T11:57:58;1.70;;;1.37;;
16093;SDS011;8151;47.824;12.092;2023-12-29T12:00:43;0.57;;;0.57;;
16093;SDS011;8151;47.824;12.092;2023-12-29T12:03:17;0.33;;;0.33;;
16093;SDS011;8151;47.824;12.092;2023-12-29T12:05:48;0.30;;;0.30;;
16093;SDS011;8151;47.824;12.092;2023-12-29T12:08:28;1.53;;;1.40;;
16093;SDS011;8151;47.824;12.092;2023-12-29T12:14:10;1.77;;;1.20;;
16093;SDS011;8151;47.824;12.092;2023-12-29T12:16:48;3.13;;;1.20;;
16093;SDS011;8151;47.824;12.092;2023-12-29T12:19:19;1.13;;;1.03;;
16093;SDS011;8151;47.824;12.092;2023-12-29T12:21:48;1.60;;;1.50;;
16093;SDS011;8151;47.824;12.092;2023-12-29T12:24:19;3.50;;;2.20;;
16093;SDS011;8151;47.824;12.092;2023-12-29T12:26:48;2.10;;;1.73;;
16093;SDS011;8151;47.824;12.092;2023-12-29T12:29:17;1.60;;;1.50;;
16093;SDS011;8151;47.824;12.092;2023-12-29T12:31:53;1.87;;;1.67;;
16093;SDS011;8151;47.824;12.092;2023-12-29T12:34:22;0.80;;;0.70;;
16093;SDS011;8151;47.824;12.092;2023-12-29T12:36:52;1.13;;;1.13;;
16093;SDS011;8151;47.824;12.092;2023-12-29T12:39:25;2.43;;;1.00;;
16093;SDS011;8151;47.824;12.092;2023-12-29T12:42:06;4.57;;;1.10;;
16093;SDS011;8151;47.824;12.092;2023-12-29T12:44:37;2.50;;;1.77;;
16093;SDS011;8151;47.824;12.092;2023-12-29T12:47:08;1.30;;;1.20;;
16093;SDS011;8151;47.824;12.092;2023-12-29T12:49:45;1.97;;;1.47;;
16093;SDS011;8151;47.824;12.092;2023-12-29T12:52:14;2.17;;;1.70;;
16093;SDS011;8151;47.824;12.092;2023-12-29T12:54:44;3.50;;;1.70;;
16093;SDS011;8151;47.824;12.092;2023-12-29T12:57:17;2.27;;;1.67;;
16093;SDS011;8151;47.824;12.092;2023-12-29T12:59:47;2.53;;;1.97;;
16093;SDS011;8151;47.824;12.092;2023-12-29T13:02:17;2.07;;;1.53;;
16093;SDS011;8151;47.824;12.092;2023-12-29T13:04:47;2.40;;;1.83;;
16093;SDS011;8151;47.824;12.092;2023-12-29T13:07:18;3.47;;;1.97;;
16093;SDS011;8151;47.824;12.092;2023-12-29T13:09:53;3.00;;;1.70;;
16093;SDS011;8151;47.824;12.092;2023-12-29T13:12:23;3.53;;;1.90;;
16093;SDS011;8151;47.824;12.092;2023-12-29T13:14:52;3.40;;;1.87;;
16093;SDS011;8151;47.824;12.092;2023-12-29T13:17:20;5.63;;;3.00;;
16093;SDS011;8151;47.824;12.092;2023-12-29T13:19:55;4.40;;;2.40;;
16093;SDS011;8151;47.824;12.092;2023-12-29T13:22:27;6.93;;;3.67;;
16093;SDS011;8151;47.824;12.092;2023-12-29T13:24:57;6.20;;;2.80;;
16093;SDS011;8151;47.824;12.092;2023-12-29T13:27:26;3.10;;;2.40;;
16093;SDS011;8151;47.824;12.092;2023-12-29T13:29:54;4.03;;;2.03;;
16093;SDS011;8151;47.824;12.092;2023-12-29T13:32:25;2.97;;;1.93;;
16093;SDS011;8151;47.824;12.092;2023-12-29T13:35:01;2.47;;;1.70;;
16093;SDS011;8151;47.824;12.092;2023-12-29T13:37:35;1.83;;;1.67;;
16093;SDS011;8151;47.824;12.092;2023-12-29T13:40:13;3.33;;;2.20;;
16093;SDS011;8151;47.824;12.092;2023-12-29T13:42:45;3.13;;;2.50;;
16093;SDS011;8151;47.824;12.092;2023-12-29T13:45:16;2.73;;;2.20;;
16093;SDS011;8151;47.824;12.092;2023-12-29T13:47:48;3.67;;;2.40;;
16093;SDS011;8151;47.824;12.092;2023-12-29T13:50:17;2.10;;;1.90;;
16093;SDS011;8151;47.824;12.092;2023-12-29T13:52:46;4.57;;;2.43;;
16093;SDS011;8151;47.824;12.092;2023-12-29T13:55:21;5.27;;;2.60;;
16093;SDS011;8151;47.824;12.092;2023-12-29T13:57:51;3.83;;;2.57;;
16093;SDS011;8151;47.824;12.092;2023-12-29T14:00:21;5.67;;;2.50;;
16093;SDS011;8151;47.824;12.092;2023-12-29T14:03:01;2.60;;;2.20;;
16093;SDS011;8151;47.824;12.092;2023-12-29T14:05:35;5.57;;;2.20;;
16093;SDS011;8151;47.824;12.092;2023-12-29T14:08:08;2.33;;;1.93;;
16093;SDS011;8151;47.824;12.092;2023-12-29T14:10:46;3.27;;;1.90;;
16093;SDS011;8151;47.824;12.092;2023-12-29T14:13:16;4.17;;;2.30;;
16093;SDS011;8151;47.824;12.092;2023-12-29T14:15:45;3.97;;;2.30;;
16093;SDS011;8151;47.824;12.092;2023-12-29T14:18:26;2.97;;;2.40;;
16093;SDS011;8151;47.824;12.092;2023-12-29T14:21:20;2.50;;;2.13;;
16093;SDS011;8151;47.824;12.092;2023-12-29T14:26:38;5.13;;;2.60;;
16093;SDS011;8151;47.824;12.092;2023-12-29T14:29:07;5.97;;;2.90;;
16093;SDS011;8151;47.824;12.092;2023-12-29T14:31:37;5.20;;;3.57;;
16093;SDS011;8151;47.824;12.092;2023-12-29T14:34:07;2.03;;;1.83;;
16093;SDS011;8151;47.824;12.092;2023-12-29T14:36:38;8.70;;;2.47;;
16093;SDS011;8151;47.824;12.092;2023-12-29T14:39:08;3.80;;;2.73;;
16093;SDS011;8151;47.824;12.092;2023-12-29T14:41:39;4.63;;;3.17;;
16093;SDS011;8151;47.824;12.092;2023-12-29T14:44:08;5.13;;;2.77;;
16093;SDS011;8151;47.824;12.092;2023-12-29T14:46:36;7.30;;;2.93;;
16093;SDS011;8151;47.824;12.092;2023-12-29T14:49:05;5.80;;;3.00;;
16093;SDS011;8151;47.824;12.092;2023-12-29T14:51:35;3.63;;;2.60;;
16093;SDS011;8151;47.824;12.092;2023-12-29T14:54:03;3.67;;;3.10;;
16093;SDS011;8151;47.824;12.092;2023-12-29T14:56:32;8.03;;;4.57;;
16093;SDS011;8151;47.824;12.092;2023-12-29T14:59:02;3.97;;;2.87;;
16093;SDS011;8151;47.824;12.092;2023-12-29T15:01:33;4.77;;;2.70;;
16093;SDS011;8151;47.824;12.092;2023-12-29T15:04:01;4.43;;;2.90;;
16093;SDS011;8151;47.824;12.092;2023-12-29T15:06:31;4.97;;;2.57;;
16093;SDS011;8151;47.824;12.092;2023-12-29T15:08:59;3.93;;;2.80;;
16093;SDS011;8151;47.824;12.092;2023-12-29T15:11:28;3.40;;;2.70;;